createdAt,value
2023-02-23T00:02:07.558Z,101220.53
2023-02-23T00:04:38.354Z,101216.41
2023-02-23T00:07:06.530Z,101214.03
2023-02-23T00:09:36.686Z,101213.28
2023-02-23T00:12:09.241Z,101209.84
2023-02-23T00:14:38.101Z,101210.81
2023-02-23T00:17:14.143Z,101210.84
2023-02-23T00:19:43.511Z,101212.66
2023-02-23T00:22:10.931Z,101224.34
2023-02-23T00:24:38.876Z,101240.16
2023-02-23T00:27:06.610Z,101251.19
2023-02-23T00:29:40.055Z,101258.13
2023-02-23T00:32:07.663Z,101258.97
2023-02-23T00:34:35.820Z,101258.06
2023-02-23T00:37:02.816Z,101257.94
2023-02-23T00:39:29.767Z,101257.84
2023-02-23T00:42:02.746Z,101261.28
2023-02-23T00:44:29.941Z,101261.03
2023-02-23T00:46:56.920Z,101267.16
2023-02-23T00:49:23.976Z,101264.53
2023-02-23T00:51:52.327Z,101256.72
2023-02-23T00:54:21.260Z,101259.25
2023-02-23T00:56:48.921Z,101268.84
2023-02-23T00:59:16.328Z,101274.03
2023-02-23T01:01:43.478Z,101261.81
2023-02-23T01:04:12.586Z,101268.00
2023-02-23T01:06:41.515Z,101269.53
2023-02-23T01:09:21.803Z,101265.25
2023-02-23T01:11:48.972Z,101274.78
2023-02-23T01:14:15.938Z,101270.44
2023-02-23T01:16:42.870Z,101276.59
2023-02-23T01:19:10.904Z,101273.00
2023-02-23T01:21:42.309Z,101267.66
2023-02-23T01:24:11.936Z,101271.28
2023-02-23T01:26:42.604Z,101270.31
2023-02-23T01:29:14.665Z,101275.56
2023-02-23T01:31:47.068Z,101274.63
2023-02-23T01:34:15.311Z,101271.03
2023-02-23T01:36:44.406Z,101271.16
2023-02-23T01:39:17.522Z,101278.91
2023-02-23T01:41:45.883Z,101286.84
2023-02-23T01:44:12.767Z,101290.22
2023-02-23T01:46:46.360Z,101287.59
2023-02-23T01:49:25.710Z,101284.91
2023-02-23T01:52:05.019Z,101279.63
2023-02-23T01:54:44.586Z,101284.91
2023-02-23T01:57:14.237Z,101282.22
2023-02-23T01:59:49.430Z,101289.28
2023-02-23T02:02:27.658Z,101283.09
2023-02-23T02:04:56.459Z,101281.31
2023-02-23T02:07:28.240Z,101283.88
2023-02-23T02:10:13.613Z,101280.41
2023-02-23T02:12:51.975Z,101278.69
2023-02-23T02:15:19.831Z,101279.53
2023-02-23T02:18:23.674Z,101274.31
2023-02-23T02:21:47.050Z,101272.47
2023-02-23T02:25:06.675Z,101282.00
2023-02-23T02:28:08.800Z,101284.63
2023-02-23T02:31:31.243Z,101284.66
2023-02-23T02:34:46.117Z,101283.78
2023-02-23T02:37:18.343Z,101285.50
2023-02-23T02:40:16.072Z,101278.53
2023-02-23T02:42:57.858Z,101278.50
2023-02-23T02:45:55.904Z,101285.50
2023-02-23T02:48:57.649Z,101282.78
2023-02-23T02:51:43.792Z,101282.84
2023-02-23T02:54:28.854Z,101287.09
2023-02-23T02:57:00.465Z,101282.75
2023-02-23T02:59:46.691Z,101275.78
2023-02-23T03:02:41.464Z,101277.56
2023-02-23T03:05:37.357Z,101277.50
2023-02-23T03:08:47.427Z,101286.19
2023-02-23T03:11:33.757Z,101281.81
2023-02-23T03:14:57.016Z,101278.28
2023-02-23T03:18:04.508Z,101291.38
2023-02-23T03:21:08.118Z,101286.94
2023-02-23T03:24:09.605Z,101297.41
2023-02-23T03:27:04.532Z,101292.22
2023-02-23T03:30:08.484Z,101296.53
2023-02-23T03:33:11.382Z,101302.59
2023-02-23T03:36:21.817Z,101304.38
2023-02-23T03:39:34.182Z,101296.47
2023-02-23T03:42:26.009Z,101299.91
2023-02-23T03:45:13.137Z,101299.13
2023-02-23T03:48:02.490Z,101303.44
2023-02-23T03:50:59.715Z,101298.25
2023-02-23T03:54:19.262Z,101299.03
2023-02-23T03:57:10.616Z,101298.97
2023-02-23T04:00:09.300Z,101304.13
2023-02-23T04:02:57.880Z,101301.66
2023-02-23T04:05:45.618Z,101307.69
2023-02-23T04:08:36.433Z,101305.06
2023-02-23T04:11:37.173Z,101308.47
2023-02-23T04:14:12.326Z,101319.75
2023-02-23T04:16:41.876Z,101315.44
2023-02-23T04:19:08.891Z,101316.28
2023-02-23T04:21:35.856Z,101315.53
2023-02-23T04:24:02.855Z,101316.28
2023-02-23T04:26:29.830Z,101325.81
2023-02-23T04:28:57.336Z,101324.06
2023-02-23T04:31:25.265Z,101327.53
2023-02-23T04:33:52.654Z,101320.63
2023-02-23T04:36:19.623Z,101322.41
2023-02-23T04:38:46.592Z,101323.19
2023-02-23T04:41:13.823Z,101329.31
2023-02-23T04:43:40.824Z,101324.91
2023-02-23T04:46:08.410Z,101325.81
2023-02-23T04:48:35.878Z,101318.94
2023-02-23T04:51:02.899Z,101327.84
2023-02-23T04:53:29.870Z,101328.66
2023-02-23T04:56:04.451Z,101322.47
2023-02-23T04:58:32.169Z,101322.41
2023-02-23T05:01:06.988Z,101329.41
2023-02-23T05:03:34.493Z,101323.28
2023-02-23T05:06:01.601Z,101327.00
2023-02-23T05:08:28.629Z,101332.13
2023-02-23T05:10:55.569Z,101330.44
2023-02-23T05:13:23.380Z,101333.00
2023-02-23T05:15:50.440Z,101334.66
2023-02-23T05:18:17.507Z,101333.75
2023-02-23T05:20:47.750Z,101332.22
2023-02-23T05:23:14.770Z,101333.06
2023-02-23T05:25:41.790Z,101325.25
2023-02-23T05:28:08.759Z,101327.78
2023-02-23T05:30:36.690Z,101331.03
2023-02-23T05:33:03.800Z,101344.06
2023-02-23T05:35:30.844Z,101346.47
2023-02-23T05:37:57.897Z,101340.34
2023-02-23T05:40:24.849Z,101341.13
2023-02-23T05:42:51.820Z,101342.25
2023-02-23T05:45:18.801Z,101351.78
2023-02-23T05:47:45.778Z,101352.66
2023-02-23T05:50:12.798Z,101349.16
2023-02-23T05:52:41.679Z,101351.81
2023-02-23T05:55:11.828Z,101347.47
2023-02-23T05:57:41.225Z,101344.88
2023-02-23T06:00:10.080Z,101342.34
2023-02-23T06:02:37.524Z,101348.38
2023-02-23T06:05:06.113Z,101344.97
2023-02-23T06:07:33.112Z,101345.81
2023-02-23T06:10:00.204Z,101364.91
2023-02-23T06:12:27.152Z,101380.78
2023-02-23T06:14:54.091Z,101368.47
2023-02-23T06:17:21.071Z,101373.66
2023-02-23T06:19:48.028Z,101366.63
2023-02-23T06:22:17.413Z,101380.56
2023-02-23T06:24:45.359Z,101381.28
2023-02-23T06:27:14.159Z,101376.00
2023-02-23T06:29:41.660Z,101381.13
2023-02-23T06:32:08.740Z,101382.00
2023-02-23T06:34:36.469Z,101389.88
2023-02-23T06:37:03.435Z,101398.66
2023-02-23T06:39:30.441Z,101401.28
2023-02-23T06:41:57.476Z,101395.16
2023-02-23T06:44:24.604Z,101406.41
2023-02-23T06:46:51.654Z,101419.00
2023-02-23T06:49:18.794Z,101410.03
2023-02-23T06:51:45.801Z,101403.13
2023-02-23T06:54:12.853Z,101395.50
2023-02-23T06:56:39.855Z,101378.66
2023-02-23T06:59:07.286Z,101370.38
2023-02-23T07:01:34.344Z,101373.31
2023-02-23T07:04:01.469Z,101384.16
2023-02-23T07:06:28.778Z,101383.53
2023-02-23T07:08:58.738Z,101381.06
2023-02-23T07:11:25.738Z,101379.41
2023-02-23T07:13:52.691Z,101382.97
2023-02-23T07:16:19.727Z,101390.03
2023-02-23T07:18:46.694Z,101394.56
2023-02-23T07:21:13.728Z,101394.56
2023-02-23T07:23:40.753Z,101414.91
2023-02-23T07:26:07.994Z,101409.63
2023-02-23T07:28:35.110Z,101409.66
2023-02-23T07:31:02.146Z,101413.25
2023-02-23T07:33:29.244Z,101420.31
2023-02-23T07:35:56.192Z,101418.56
2023-02-23T07:38:23.264Z,101422.97
2023-02-23T07:40:51.644Z,101430.03
2023-02-23T07:43:21.418Z,101427.41
2023-02-23T07:45:49.562Z,101426.56
2023-02-23T07:48:16.508Z,101437.19
2023-02-23T07:50:43.637Z,101440.75
2023-02-23T07:53:11.443Z,101436.34
2023-02-23T07:55:40.250Z,101445.22
2023-02-23T07:58:08.158Z,101449.63
2023-02-23T08:00:36.990Z,101444.34
2023-02-23T08:03:04.036Z,101451.38
2023-02-23T08:05:31.048Z,101452.28
2023-02-23T08:07:59.179Z,101451.47
2023-02-23T08:10:26.575Z,101455.00
2023-02-23T08:12:53.588Z,101460.25
2023-02-23T08:15:20.654Z,101466.16
2023-02-23T08:17:47.667Z,101464.59
2023-02-23T08:20:14.791Z,101472.56
2023-02-23T08:22:49.274Z,101472.59
2023-02-23T08:25:18.016Z,101468.16
2023-02-23T08:27:45.240Z,101473.50
2023-02-23T08:30:14.202Z,101476.16
2023-02-23T08:32:41.309Z,101471.81
2023-02-23T08:35:10.021Z,101482.38
2023-02-23T08:37:37.101Z,101480.63
2023-02-23T08:40:04.742Z,101488.56
2023-02-23T08:42:31.724Z,101483.28
2023-02-23T08:44:59.204Z,101492.97
2023-02-23T08:47:26.385Z,101489.47
2023-02-23T08:49:56.614Z,101492.97
2023-02-23T08:52:24.109Z,101494.75
2023-02-23T08:54:51.197Z,101496.28
2023-02-23T08:57:19.354Z,101498.91
2023-02-23T08:59:46.443Z,101505.06
2023-02-23T09:02:14.889Z,101507.78
2023-02-23T09:04:42.114Z,101510.50
2023-02-23T09:07:15.196Z,101508.81
2023-02-23T09:09:42.201Z,101506.97
2023-02-23T09:12:09.353Z,101514.75
2023-02-23T09:14:36.795Z,101513.06
2023-02-23T09:17:04.117Z,101522.56
2023-02-23T09:19:31.642Z,101527.09
2023-02-23T09:21:58.573Z,101520.47
2023-02-23T09:24:25.533Z,101518.88
2023-02-23T09:26:53.801Z,101525.22
2023-02-23T09:29:20.859Z,101530.59
2023-02-23T09:31:48.004Z,101533.19
2023-02-23T09:34:15.427Z,101534.13
2023-02-23T09:36:42.378Z,101526.28
2023-02-23T09:39:09.364Z,101531.53
2023-02-23T09:42:08.315Z,101534.16
2023-02-23T09:45:10.404Z,101526.28
2023-02-23T09:47:58.775Z,101522.84
2023-02-23T09:50:30.109Z,101521.03
2023-02-23T09:53:06.541Z,101533.56
2023-02-23T09:55:33.925Z,101529.75
2023-02-23T09:58:13.494Z,101531.59
2023-02-23T10:00:50.214Z,101546.53
2023-02-23T10:03:35.045Z,101534.69
2023-02-23T10:06:09.242Z,101530.31
2023-02-23T10:08:53.253Z,101526.28
2023-02-23T10:11:41.794Z,101536.97
2023-02-23T10:14:23.573Z,101545.91
2023-02-23T10:17:42.016Z,101546.69
2023-02-23T10:20:26.668Z,101542.31
2023-02-23T10:22:58.210Z,101541.31
2023-02-23T10:25:28.822Z,101541.41
2023-02-23T10:27:58.439Z,101539.66
2023-02-23T10:30:32.283Z,101544.13
2023-02-23T10:33:11.832Z,101539.81
2023-02-23T10:35:39.802Z,101553.88
2023-02-23T10:38:13.869Z,101550.28
2023-02-23T10:40:43.198Z,101552.94
2023-02-23T10:43:13.315Z,101551.19
2023-02-23T10:45:47.940Z,101551.22
2023-02-23T10:48:26.452Z,101550.38
2023-02-23T10:51:02.774Z,101558.16
2023-02-23T10:53:36.771Z,101549.25
2023-02-23T10:56:10.734Z,101551.03
2023-02-23T10:58:59.038Z,101551.09
2023-02-23T11:02:01.068Z,101562.38
2023-02-23T11:04:35.053Z,101551.63
2023-02-23T11:07:18.569Z,101566.66
2023-02-23T11:09:47.754Z,101561.44
2023-02-23T11:12:42.867Z,101566.63
2023-02-23T11:15:49.290Z,101557.78
2023-02-23T11:18:26.346Z,101554.03
2023-02-23T11:20:54.661Z,101546.16
2023-02-23T11:23:39.902Z,101533.84
2023-02-23T11:26:37.512Z,101532.94
2023-02-23T11:29:26.422Z,101528.25
2023-02-23T11:31:58.456Z,101536.25
2023-02-23T11:34:35.635Z,101525.94
2023-02-23T11:37:08.052Z,101543.75
2023-02-23T11:39:35.400Z,101546.88
2023-02-23T11:42:25.473Z,101538.88
2023-02-23T11:45:17.213Z,101541.09
2023-02-23T11:47:53.962Z,101544.16
2023-02-23T11:50:26.053Z,101557.66
2023-02-23T11:53:38.077Z,101545.44
2023-02-23T11:56:12.642Z,101553.53
2023-02-23T11:58:53.855Z,101550.03
2023-02-23T12:01:45.329Z,101538.53
2023-02-23T12:04:39.595Z,101533.22
2023-02-23T12:07:43.986Z,101535.88
2023-02-23T12:10:22.860Z,101525.28
2023-02-23T12:13:24.745Z,101521.19
2023-02-23T12:16:25.177Z,101527.50
2023-02-23T12:19:49.657Z,101521.13
2023-02-23T12:22:27.372Z,101523.47
2023-02-23T12:25:05.088Z,101511.44
2023-02-23T12:27:50.414Z,101513.78
2023-02-23T12:30:46.465Z,101503.63
2023-02-23T12:33:23.298Z,101505.53
2023-02-23T12:36:45.490Z,101509.91
2023-02-23T12:39:24.527Z,101514.38
2023-02-23T12:42:24.953Z,101508.50
2023-02-23T12:45:01.795Z,101518.34
2023-02-23T12:47:56.279Z,101513.41
2023-02-23T12:50:45.807Z,101528.72
2023-02-23T12:53:44.299Z,101523.44
2023-02-23T12:56:35.776Z,101515.88
2023-02-23T12:59:20.456Z,101510.97
2023-02-23T13:02:29.724Z,101514.13
2023-02-23T13:05:08.322Z,101516.88
2023-02-23T13:07:38.272Z,101515.09
2023-02-23T13:10:26.298Z,101518.53
2023-02-23T13:13:07.131Z,101516.69
2023-02-23T13:15:58.001Z,101520.13
2023-02-23T13:18:41.300Z,101519.44
2023-02-23T13:21:19.727Z,101515.66
2023-02-23T13:24:02.510Z,101512.50
2023-02-23T13:26:36.672Z,101517.97
2023-02-23T13:29:34.266Z,101511.88
2023-02-23T13:32:05.098Z,101519.84
2023-02-23T13:34:39.426Z,101523.34
2023-02-23T13:37:08.316Z,101521.59
2023-02-23T13:40:24.604Z,101522.50
2023-02-23T13:43:18.366Z,101520.06
2023-02-23T13:46:32.177Z,101521.41
2023-02-23T13:49:16.185Z,101526.78
2023-02-23T13:51:52.148Z,101520.66
2023-02-23T13:54:33.586Z,101540.97
2023-02-23T13:57:05.721Z,101527.75
2023-02-23T13:59:43.612Z,101531.28
2023-02-23T14:02:28.712Z,101532.16
2023-02-23T14:05:20.396Z,101543.59
2023-02-23T14:07:52.497Z,101545.28
2023-02-23T14:10:28.377Z,101539.41
2023-02-23T14:13:13.289Z,101538.84
2023-02-23T14:15:48.643Z,101546.09
2023-02-23T14:18:21.653Z,101547.97
2023-02-23T14:21:05.142Z,101550.88
2023-02-23T14:23:51.687Z,101545.41
2023-02-23T14:26:41.909Z,101536.53
2023-02-23T14:29:27.017Z,101533.28
2023-02-23T14:32:11.543Z,101530.06
2023-02-23T14:35:01.688Z,101536.47
2023-02-23T14:37:41.363Z,101539.19
2023-02-23T14:40:22.501Z,101530.34
2023-02-23T14:42:57.686Z,101531.59
2023-02-23T14:45:46.322Z,101526.56
2023-02-23T14:48:15.795Z,101522.34
2023-02-23T14:50:43.369Z,101532.81
2023-02-23T14:53:24.115Z,101529.38
2023-02-23T14:55:51.144Z,101523.28
2023-02-23T14:58:33.455Z,101533.91
2023-02-23T15:01:00.780Z,101527.72
2023-02-23T15:03:27.739Z,101533.03
2023-02-23T15:06:00.260Z,101530.41
2023-02-23T15:08:30.784Z,101536.47
2023-02-23T15:11:08.170Z,101535.50
2023-02-23T15:13:40.242Z,101530.31
2023-02-23T15:16:15.010Z,101522.06
2023-02-23T15:18:44.451Z,101522.34
2023-02-23T15:21:18.693Z,101525.97
2023-02-23T15:23:52.991Z,101527.78
2023-02-23T15:26:31.876Z,101527.78
2023-02-23T15:29:10.872Z,101536.56
2023-02-23T15:31:40.892Z,101533.84
2023-02-23T15:34:11.685Z,101536.59
2023-02-23T15:36:41.318Z,101539.25
2023-02-23T15:39:13.753Z,101535.63
2023-02-23T15:41:43.338Z,101533.97
2023-02-23T15:44:22.873Z,101541.81
2023-02-23T15:47:03.696Z,101541.00
2023-02-23T15:49:35.864Z,101541.09
2023-02-23T15:52:08.150Z,101548.16
2023-02-23T15:54:48.206Z,101545.50
2023-02-23T15:57:33.372Z,101540.22
2023-02-23T16:00:16.465Z,101541.88
2023-02-23T16:02:44.867Z,101555.16
2023-02-23T16:05:25.662Z,101553.59
2023-02-23T16:08:07.522Z,101558.41
2023-02-23T16:11:07.539Z,101564.53
2023-02-23T16:13:35.095Z,101568.06
2023-02-23T16:16:05.992Z,101562.41
2023-02-23T16:18:41.779Z,101566.75
2023-02-23T16:21:17.489Z,101562.59
2023-02-23T16:23:49.498Z,101568.75
2023-02-23T16:26:47.183Z,101559.94
2023-02-23T16:29:27.686Z,101564.34
2023-02-23T16:32:03.032Z,101561.44
2023-02-23T16:34:49.854Z,101565.81
2023-02-23T16:37:28.236Z,101566.56
2023-02-23T16:40:00.197Z,101565.00
2023-02-23T16:42:34.250Z,101565.81
2023-02-23T16:45:01.714Z,101563.00
2023-02-23T16:47:47.868Z,101572.88
2023-02-23T16:50:21.851Z,101567.38
2023-02-23T16:52:54.535Z,101577.00
2023-02-23T16:55:28.276Z,101572.59
2023-02-23T16:58:00.112Z,101562.97
2023-02-23T17:00:31.507Z,101571.50
2023-02-23T17:03:00.713Z,101567.94
2023-02-23T17:05:29.247Z,101569.69
2023-02-23T17:07:58.295Z,101561.66
2023-02-23T17:10:39.382Z,101565.84
2023-02-23T17:13:15.302Z,101562.13
2023-02-23T17:15:54.515Z,101566.13
2023-02-23T17:18:27.808Z,101563.94
2023-02-23T17:21:07.932Z,101564.00
2023-02-23T17:23:42.591Z,101568.25
2023-02-23T17:26:11.805Z,101568.13
2023-02-23T17:28:40.357Z,101578.56
2023-02-23T17:31:08.035Z,101570.69
2023-02-23T17:33:37.196Z,101574.06
2023-02-23T17:36:08.460Z,101589.59
2023-02-23T17:38:35.553Z,101588.53
2023-02-23T17:41:08.892Z,101597.34
2023-02-23T17:43:37.733Z,101585.13
2023-02-23T17:46:05.182Z,101595.81
2023-02-23T17:48:35.565Z,101596.09
2023-02-23T17:51:08.654Z,101606.84
2023-02-23T17:53:36.080Z,101603.41
2023-02-23T17:56:03.409Z,101606.53
2023-02-23T17:58:30.704Z,101620.06
2023-02-23T18:01:01.735Z,101614.47
2023-02-23T18:03:32.653Z,101621.47
2023-02-23T18:06:04.717Z,101624.09
2023-02-23T18:08:32.976Z,101627.84
2023-02-23T18:11:00.336Z,101625.72
2023-02-23T18:13:29.719Z,101633.16
2023-02-23T18:16:03.033Z,101624.34
2023-02-23T18:18:30.334Z,101635.44
2023-02-23T18:21:00.281Z,101631.94
2023-02-23T18:23:32.518Z,101645.59
2023-02-23T18:26:08.862Z,101646.44
2023-02-23T18:28:36.246Z,101641.97
2023-02-23T18:31:03.911Z,101643.44
2023-02-23T18:33:31.583Z,101642.59
2023-02-23T18:35:58.758Z,101649.38
2023-02-23T18:38:26.079Z,101654.56
2023-02-23T18:40:53.412Z,101657.81
2023-02-23T18:43:20.429Z,101668.19
2023-02-23T18:45:52.358Z,101661.09
2023-02-23T18:48:20.473Z,101662.22
2023-02-23T18:50:47.510Z,101666.22
2023-02-23T18:53:14.575Z,101662.75
2023-02-23T18:55:41.671Z,101664.94
2023-02-23T18:58:08.634Z,101657.56
2023-02-23T19:00:40.140Z,101663.16
2023-02-23T19:03:07.478Z,101665.94
2023-02-23T19:05:36.297Z,101678.97
2023-02-23T19:08:04.295Z,101681.28
2023-02-23T19:10:31.402Z,101686.34
2023-02-23T19:12:58.452Z,101683.66
2023-02-23T19:15:25.432Z,101672.69
2023-02-23T19:17:53.798Z,101682.06
2023-02-23T19:20:22.892Z,101686.41
2023-02-23T19:22:49.927Z,101685.81
2023-02-23T19:25:17.089Z,101681.44
2023-02-23T19:27:44.174Z,101680.50
2023-02-23T19:30:12.261Z,101674.31
2023-02-23T19:32:39.926Z,101670.28
2023-02-23T19:35:10.792Z,101685.75
2023-02-23T19:37:40.019Z,101680.56
2023-02-23T19:40:08.198Z,101672.78
2023-02-23T19:42:36.913Z,101672.94
2023-02-23T19:45:04.500Z,101668.31
2023-02-23T19:47:31.535Z,101666.25
2023-02-23T19:49:58.520Z,101659.94
2023-02-23T19:52:28.765Z,101659.00
2023-02-23T19:54:55.908Z,101665.38
2023-02-23T19:57:23.149Z,101667.22
2023-02-23T19:59:50.100Z,101666.22
2023-02-23T20:02:17.281Z,101671.72
2023-02-23T20:04:48.003Z,101677.81
2023-02-23T20:07:16.306Z,101672.88
2023-02-23T20:09:43.721Z,101680.97
2023-02-23T20:12:10.892Z,101671.91
2023-02-23T20:14:39.620Z,101675.25
2023-02-23T20:17:09.038Z,101675.31
2023-02-23T20:19:36.067Z,101683.69
2023-02-23T20:22:04.208Z,101675.00
2023-02-23T20:24:31.294Z,101681.50
2023-02-23T20:26:59.288Z,101678.16
2023-02-23T20:29:28.172Z,101682.97
2023-02-23T20:31:55.462Z,101686.25
2023-02-23T20:34:24.575Z,101687.16
2023-02-23T20:36:52.395Z,101685.91
2023-02-23T20:39:20.041Z,101689.44
2023-02-23T20:41:47.930Z,101676.75
2023-02-23T20:44:16.336Z,101680.78
2023-02-23T20:46:44.719Z,101671.06
2023-02-23T20:49:12.955Z,101675.47
2023-02-23T20:51:46.309Z,101668.84
2023-02-23T20:54:14.358Z,101669.50
2023-02-23T20:56:42.517Z,101671.78
2023-02-23T20:59:11.265Z,101678.09
2023-02-23T21:01:41.253Z,101677.97
2023-02-23T21:04:08.647Z,101684.50
2023-02-23T21:06:35.884Z,101672.47
2023-02-23T21:09:07.026Z,101675.69
2023-02-23T21:11:34.500Z,101680.72
2023-02-23T21:14:01.442Z,101672.59
2023-02-23T21:16:32.353Z,101674.97
2023-02-23T21:19:05.314Z,101672.06
2023-02-23T21:21:42.852Z,101664.34
2023-02-23T21:24:10.593Z,101658.09
2023-02-23T21:26:38.166Z,101655.56
2023-02-23T21:29:11.640Z,101658.09
2023-02-23T21:31:39.739Z,101657.88
2023-02-23T21:34:08.172Z,101665.41
2023-02-23T21:36:36.058Z,101662.59
2023-02-23T21:39:06.061Z,101668.38
2023-02-23T21:41:33.796Z,101663.09
2023-02-23T21:44:03.828Z,101669.75
2023-02-23T21:46:31.116Z,101663.16
2023-02-23T21:48:58.508Z,101666.22
2023-02-23T21:51:25.793Z,101672.22
2023-02-23T21:53:55.797Z,101666.03
2023-02-23T21:56:23.006Z,101662.59
2023-02-23T21:58:57.924Z,101670.16
2023-02-23T22:01:28.797Z,101674.50
2023-02-23T22:03:56.602Z,101672.78
2023-02-23T22:06:30.587Z,101681.16
2023-02-23T22:08:58.030Z,101675.50
2023-02-23T22:11:28.468Z,101675.22
2023-02-23T22:13:59.912Z,101678.66
2023-02-23T22:16:31.865Z,101678.88
2023-02-23T22:19:03.550Z,101681.63
2023-02-23T22:21:33.458Z,101686.00
2023-02-23T22:24:05.121Z,101682.44
2023-02-23T22:26:37.763Z,101683.47
2023-02-23T22:29:06.985Z,101679.06
2023-02-23T22:31:34.254Z,101673.84
2023-02-23T22:34:01.442Z,101673.72
2023-02-23T22:36:29.121Z,101677.16
2023-02-23T22:38:59.647Z,101677.00
2023-02-23T22:41:30.771Z,101669.81
2023-02-23T22:43:58.422Z,101673.44
2023-02-23T22:46:26.326Z,101672.28
2023-02-23T22:48:53.548Z,101663.47
2023-02-23T22:51:21.313Z,101661.69
2023-02-23T22:53:48.635Z,101669.38
2023-02-23T22:56:15.641Z,101675.28
2023-02-23T22:58:42.618Z,101674.09
2023-02-23T23:01:11.940Z,101674.69
2023-02-23T23:03:46.579Z,101670.47
2023-02-23T23:06:17.921Z,101668.69
2023-02-23T23:08:45.984Z,101665.25
2023-02-23T23:11:28.308Z,101646.63
2023-02-23T23:14:02.091Z,101654.84
2023-02-23T23:16:35.916Z,101653.75
2023-02-23T23:19:12.138Z,101646.59
2023-02-23T23:21:41.523Z,101640.31
2023-02-23T23:24:09.943Z,101636.22
2023-02-23T23:26:40.700Z,101639.66
2023-02-23T23:29:13.449Z,101633.56
2023-02-23T23:31:45.395Z,101639.72
2023-02-23T23:34:16.712Z,101625.81
2023-02-23T23:36:48.795Z,101629.16
2023-02-23T23:39:18.129Z,101616.13
2023-02-23T23:41:48.260Z,101613.38
2023-02-23T23:44:22.422Z,101618.28
2023-02-23T23:46:53.370Z,101619.16
2023-02-23T23:49:25.635Z,101609.41
2023-02-23T23:51:56.410Z,101606.72
2023-02-23T23:54:28.407Z,101609.34
2023-02-23T23:56:55.369Z,101599.06
2023-02-23T23:59:25.068Z,101602.34
